Time;durP1;ratioP1;P1;durP2;ratioP2;P2;SDS_P1;SDS_P2;PMS_P1;PMS_P2;Temp;Humidity;BMP_temperature;BMP_pressure;BME280_temperature;BME280_humidity;BME280_pressure;Samples;Min_cycle;Max_cycle;Signal;HPM_P1;HPM_P2
2023/06/26 00:00:19;;;;;;;12.20;7.20;;;;;;;;;;108234;1250;25370;-80
2023/06/26 00:03:06;;;;;;;10.30;7.00;;;;;;;;;;108215;1250;23221;-80
2023/06/26 00:05:32;;;;;;;12.90;7.90;;;;;;;;;;108237;1250;22669;-80
2023/06/26 00:08:00;;;;;;;12.10;6.90;;;;;;;;;;108214;1251;25505;-81
2023/06/26 00:10:27;;;;;;;10.80;6.60;;;;;;;;;;108185;1250;22528;-80
2023/06/26 00:12:53;;;;;;;15.40;7.00;;;;;;;;;;108146;1250;23732;-81
2023/06/26 00:15:20;;;;;;;10.90;7.00;;;;;;;;;;108183;1251;24284;-81
2023/06/26 00:17:46;;;;;;;15.00;7.80;;;;;;;;;;108171;1250;22525;-80
2023/06/26 00:20:16;;;;;;;9.40;6.70;;;;;;;;;;108223;1250;25416;-80
2023/06/26 00:22:42;;;;;;;13.80;7.60;;;;;;;;;;108150;1251;25420;-80
2023/06/26 00:25:09;;;;;;;11.80;5.90;;;;;;;;;;108177;1251;22611;-80
2023/06/26 00:27:35;;;;;;;11.70;7.20;;;;;;;;;;108210;1251;22547;-80
2023/06/26 00:30:02;;;;;;;14.90;6.70;;;;;;;;;;108189;1255;23174;-80
2023/06/26 00:32:28;;;;;;;14.10;6.30;;;;;;;;;;108156;1251;24261;-81
2023/06/26 00:34:55;;;;;;;12.50;7.20;;;;;;;;;;108231;1254;23925;-80
2023/06/26 00:37:21;;;;;;;10.00;6.80;;;;;;;;;;108143;1251;22622;-80
2023/06/26 00:39:48;;;;;;;9.50;6.50;;;;;;;;;;108218;1250;23317;-80
2023/06/26 00:42:14;;;;;;;9.30;6.30;;;;;;;;;;108153;1251;22551;-80
2023/06/26 00:44:41;;;;;;;12.00;6.50;;;;;;;;;;108175;1251;22598;-81
2023/06/26 00:47:07;;;;;;;16.50;6.30;;;;;;;;;;108157;1251;25480;-80
2023/06/26 00:49:34;;;;;;;8.90;6.40;;;;;;;;;;108241;1254;23300;-80
2023/06/26 00:52:01;;;;;;;10.00;5.60;;;;;;;;;;108174;1251;23540;-80
2023/06/26 00:54:27;;;;;;;13.30;7.20;;;;;;;;;;108258;1250;22531;-80
2023/06/26 00:56:53;;;;;;;11.90;6.20;;;;;;;;;;108286;1250;25389;-80
2023/06/26 00:59:20;;;;;;;12.50;5.90;;;;;;;;;;108231;1250;25491;-80
2023/06/26 01:01:48;;;;;;;10.50;6.80;;;;;;;;;;108289;1250;22580;-80
2023/06/26 01:04:17;;;;;;;18.80;8.10;;;;;;;;;;108290;1251;23291;-81
2023/06/26 01:06:49;;;;;;;16.10;6.80;;;;;;;;;;108221;1250;25217;-80
2023/06/26 01:09:19;;;;;;;10.30;6.20;;;;;;;;;;108237;1250;22623;-80
2023/06/26 01:11:46;;;;;;;15.10;6.50;;;;;;;;;;108276;1250;22542;-81
2023/06/26 01:14:12;;;;;;;11.60;7.10;;;;;;;;;;108249;1251;22636;-80
2023/06/26 01:16:39;;;;;;;13.90;6.10;;;;;;;;;;108215;1251;22675;-80
2023/06/26 01:19:13;;;;;;;12.30;6.50;;;;;;;;;;108243;1250;24095;-80
2023/06/26 01:21:40;;;;;;;8.80;6.00;;;;;;;;;;108217;1251;22546;-80
2023/06/26 01:24:14;;;;;;;10.10;6.10;;;;;;;;;;108177;1251;22602;-80
2023/06/26 01:26:41;;;;;;;13.50;6.80;;;;;;;;;;108103;1250;23169;-80
2023/06/26 01:29:07;;;;;;;14.20;6.80;;;;;;;;;;108146;1251;25202;-80
2023/06/26 01:31:33;;;;;;;14.10;5.90;;;;;;;;;;108159;1251;22540;-80
2023/06/26 01:34:00;;;;;;;11.00;6.30;;;;;;;;;;108075;1251;23649;-80
2023/06/26 01:36:27;;;;;;;9.30;6.20;;;;;;;;;;108225;1251;25318;-81
2023/06/26 01:38:53;;;;;;;10.90;6.30;;;;;;;;;;108177;1251;23177;-80
2023/06/26 01:41:19;;;;;;;10.60;6.80;;;;;;;;;;108171;1251;25420;-80
2023/06/26 01:44:06;;;;;;;14.70;7.20;;;;;;;;;;108224;1251;22542;-80
2023/06/26 01:46:51;;;;;;;12.50;5.90;;;;;;;;;;108137;1252;22534;-80
2023/06/26 01:49:21;;;;;;;12.60;7.20;;;;;;;;;;108205;1250;25413;-80
2023/06/26 01:51:51;;;;;;;9.80;6.60;;;;;;;;;;108193;1251;22999;-80
2023/06/26 01:54:19;;;;;;;14.10;6.50;;;;;;;;;;108276;1250;22530;-80
2023/06/26 01:56:45;;;;;;;13.50;6.50;;;;;;;;;;110031;1250;22920;-81
2023/06/26 01:59:13;;;;;;;9.60;5.60;;;;;;;;;;110170;1251;22539;-81
2023/06/26 02:01:40;;;;;;;11.10;6.00;;;;;;;;;;108718;1250;22546;-80
2023/06/26 02:04:06;;;;;;;11.30;6.70;;;;;;;;;;108211;1250;22591;-80
2023/06/26 02:06:33;;;;;;;11.30;6.30;;;;;;;;;;108292;1250;22581;-80
2023/06/26 02:09:00;;;;;;;12.90;6.10;;;;;;;;;;108283;1250;23862;-80
2023/06/26 02:11:26;;;;;;;14.90;6.50;;;;;;;;;;108232;1250;22524;-80
2023/06/26 02:13:53;;;;;;;14.10;6.70;;;;;;;;;;108286;1250;23652;-80
2023/06/26 02:16:19;;;;;;;12.70;5.80;;;;;;;;;;108545;1250;22536;-80
2023/06/26 02:18:45;;;;;;;10.80;7.00;;;;;;;;;;108252;1250;22777;-80
2023/06/26 02:21:12;;;;;;;12.70;6.00;;;;;;;;;;108242;1251;22580;-80
2023/06/26 02:23:39;;;;;;;9.20;7.10;;;;;;;;;;108280;1251;23374;-80
2023/06/26 02:26:05;;;;;;;9.60;5.50;;;;;;;;;;110644;1250;22329;-81
2023/06/26 02:28:33;;;;;;;9.60;6.20;;;;;;;;;;110670;1250;23013;-81
2023/06/26 02:31:00;;;;;;;8.40;6.20;;;;;;;;;;110672;1250;23087;-81
2023/06/26 02:33:27;;;;;;;12.50;7.20;;;;;;;;;;110711;1250;23007;-81
2023/06/26 02:35:53;;;;;;;8.70;5.90;;;;;;;;;;110714;1251;22471;-81
2023/06/26 02:38:19;;;;;;;9.20;6.40;;;;;;;;;;110659;1253;22369;-81
2023/06/26 02:40:46;;;;;;;12.50;7.20;;;;;;;;;;110707;1250;22355;-81
2023/06/26 02:43:12;;;;;;;8.80;6.30;;;;;;;;;;110703;1251;22275;-80
2023/06/26 02:45:38;;;;;;;24.90;6.50;;;;;;;;;;110669;1251;22366;-80
2023/06/26 02:48:05;;;;;;;9.80;5.80;;;;;;;;;;110674;1250;22556;-81
2023/06/26 02:50:31;;;;;;;12.40;6.50;;;;;;;;;;110760;1250;22422;-80
2023/06/26 02:52:58;;;;;;;11.60;7.30;;;;;;;;;;110780;1250;22425;-81
2023/06/26 02:55:25;;;;;;;23.80;7.80;;;;;;;;;;110784;1250;22522;-81
2023/06/26 02:57:51;;;;;;;9.00;5.60;;;;;;;;;;110736;1250;22320;-80
2023/06/26 03:00:18;;;;;;;9.10;5.50;;;;;;;;;;110647;1251;23308;-80
2023/06/26 03:02:44;;;;;;;12.70;6.30;;;;;;;;;;108233;1250;23216;-81
2023/06/26 03:05:13;;;;;;;8.70;6.10;;;;;;;;;;108209;1253;23156;-80
2023/06/26 03:07:39;;;;;;;13.00;6.00;;;;;;;;;;108229;1250;22722;-80
2023/06/26 03:10:06;;;;;;;9.20;5.50;;;;;;;;;;108238;1254;22593;-80
2023/06/26 03:12:32;;;;;;;10.60;5.80;;;;;;;;;;108207;1250;22593;-80
2023/06/26 03:14:58;;;;;;;13.00;6.50;;;;;;;;;;108238;1250;22684;-80
2023/06/26 03:17:25;;;;;;;17.00;6.10;;;;;;;;;;108165;1250;23446;-81
2023/06/26 03:19:51;;;;;;;11.70;6.80;;;;;;;;;;108274;1250;22620;-80
2023/06/26 03:22:18;;;;;;;10.00;5.80;;;;;;;;;;108180;1250;24242;-80
2023/06/26 03:24:45;;;;;;;12.80;5.90;;;;;;;;;;108202;1251;22625;-80
2023/06/26 03:27:11;;;;;;;7.90;5.90;;;;;;;;;;108224;1251;22616;-80
2023/06/26 03:29:38;;;;;;;11.60;6.50;;;;;;;;;;108181;1251;25322;-80
2023/06/26 03:32:04;;;;;;;19.70;7.10;;;;;;;;;;108128;1251;24058;-80
2023/06/26 03:34:31;;;;;;;11.40;7.70;;;;;;;;;;108218;1251;23554;-80
2023/06/26 03:36:57;;;;;;;23.00;6.40;;;;;;;;;;108113;1251;23910;-80
2023/06/26 03:39:23;;;;;;;10.40;6.20;;;;;;;;;;108129;1251;23435;-80
2023/06/26 03:41:50;;;;;;;12.40;6.80;;;;;;;;;;108147;1251;23256;-80
2023/06/26 03:44:16;;;;;;;10.70;5.50;;;;;;;;;;108149;1250;22984;-80
2023/06/26 03:46:43;;;;;;;12.00;5.30;;;;;;;;;;108159;1250;24360;-80
2023/06/26 03:49:10;;;;;;;15.60;7.40;;;;;;;;;;108244;1250;24186;-80
2023/06/26 03:51:37;;;;;;;9.70;6.50;;;;;;;;;;108105;1251;22639;-80
2023/06/26 03:54:03;;;;;;;10.40;5.90;;;;;;;;;;108218;1250;23264;-80
2023/06/26 03:56:29;;;;;;;10.00;5.80;;;;;;;;;;108266;1250;22469;-80
2023/06/26 03:58:56;;;;;;;9.00;6.30;;;;;;;;;;108207;1250;23306;-81
2023/06/26 04:01:22;;;;;;;15.70;6.20;;;;;;;;;;108376;1250;24975;-80
2023/06/26 04:03:49;;;;;;;12.30;6.00;;;;;;;;;;108520;1250;22366;-81
2023/06/26 04:06:15;;;;;;;10.20;6.70;;;;;;;;;;110756;1250;22398;-81
2023/06/26 04:08:41;;;;;;;10.20;6.60;;;;;;;;;;108325;1254;25384;-80
2023/06/26 04:11:08;;;;;;;8.60;5.40;;;;;;;;;;108368;1250;22555;-80
2023/06/26 04:13:34;;;;;;;14.80;6.40;;;;;;;;;;108177;1251;22534;-81
2023/06/26 04:16:01;;;;;;;10.80;6.20;;;;;;;;;;108174;1250;25416;-80
2023/06/26 04:18:27;;;;;;;8.40;5.80;;;;;;;;;;108198;1250;22551;-80
2023/06/26 04:21:04;;;;;;;12.50;5.90;;;;;;;;;;108217;1251;22625;-80
2023/06/26 04:23:31;;;;;;;10.10;7.00;;;;;;;;;;108208;1251;22608;-81
2023/06/26 04:25:58;;;;;;;9.00;5.90;;;;;;;;;;108527;1251;24082;-81
2023/06/26 04:28:24;;;;;;;11.70;5.80;;;;;;;;;;108184;1251;26399;-80
2023/06/26 04:30:51;;;;;;;10.90;6.30;;;;;;;;;;108175;1253;22626;-80
2023/06/26 04:33:17;;;;;;;9.70;5.80;;;;;;;;;;108176;1251;25282;-80
2023/06/26 04:35:44;;;;;;;11.70;6.70;;;;;;;;;;108127;1253;22575;-81
2023/06/26 04:38:11;;;;;;;7.60;5.40;;;;;;;;;;108211;1254;22571;-80
2023/06/26 04:40:37;;;;;;;10.20;7.30;;;;;;;;;;108413;1251;22534;-81
2023/06/26 04:43:03;;;;;;;12.10;6.60;;;;;;;;;;108192;1251;23814;-81
2023/06/26 04:45:30;;;;;;;9.30;6.10;;;;;;;;;;108219;1251;23288;-81
2023/06/26 04:47:56;;;;;;;10.00;5.60;;;;;;;;;;108200;1252;24248;-81
2023/06/26 04:50:23;;;;;;;9.80;6.40;;;;;;;;;;108205;1251;22592;-80
2023/06/26 04:52:49;;;;;;;7.40;5.90;;;;;;;;;;108274;1250;22695;-80
2023/06/26 04:55:15;;;;;;;8.90;5.80;;;;;;;;;;108182;1250;22645;-80
2023/06/26 04:57:42;;;;;;;9.00;6.20;;;;;;;;;;108230;1250;25753;-80
2023/06/26 05:00:10;;;;;;;12.40;6.50;;;;;;;;;;108321;1251;23186;-80
2023/06/26 05:02:37;;;;;;;9.60;6.70;;;;;;;;;;108293;1251;23138;-80
2023/06/26 05:05:03;;;;;;;14.50;8.80;;;;;;;;;;108422;1250;25374;-80
2023/06/26 05:07:30;;;;;;;12.00;7.90;;;;;;;;;;108265;1250;22628;-80
2023/06/26 05:09:56;;;;;;;21.90;10.20;;;;;;;;;;108294;1250;22529;-82
2023/06/26 05:12:22;;;;;;;14.90;7.20;;;;;;;;;;108258;1251;22687;-80
2023/06/26 05:14:49;;;;;;;9.30;6.40;;;;;;;;;;108321;1250;24268;-80
2023/06/26 05:17:15;;;;;;;13.00;8.90;;;;;;;;;;108263;1250;22588;-80
2023/06/26 05:19:42;;;;;;;11.90;6.50;;;;;;;;;;108362;1251;22625;-80
2023/06/26 05:22:08;;;;;;;15.00;5.90;;;;;;;;;;108295;1250;25327;-80
2023/06/26 05:24:35;;;;;;;9.50;5.60;;;;;;;;;;108229;1251;24239;-80
2023/06/26 05:27:02;;;;;;;10.30;5.50;;;;;;;;;;108676;1251;22553;-80
2023/06/26 05:29:30;;;;;;;8.40;5.70;;;;;;;;;;108165;1253;22547;-80
2023/06/26 05:31:56;;;;;;;9.10;5.40;;;;;;;;;;108194;1254;25407;-81
2023/06/26 05:34:23;;;;;;;8.90;6.20;;;;;;;;;;108310;1250;22611;-80
2023/06/26 05:36:52;;;;;;;8.50;5.70;;;;;;;;;;108537;1251;22696;-81
2023/06/26 05:39:19;;;;;;;9.60;6.00;;;;;;;;;;108341;1249;23260;-80
2023/06/26 05:41:45;;;;;;;11.80;6.10;;;;;;;;;;108402;1251;25397;-80
2023/06/26 05:44:11;;;;;;;10.50;6.00;;;;;;;;;;108292;1249;22638;-81
2023/06/26 05:46:38;;;;;;;13.10;6.20;;;;;;;;;;108310;1253;25287;-80
2023/06/26 05:49:04;;;;;;;8.60;5.80;;;;;;;;;;108220;1251;24378;-81
2023/06/26 05:51:31;;;;;;;9.10;5.90;;;;;;;;;;108161;1251;22628;-80
2023/06/26 05:53:57;;;;;;;11.70;5.20;;;;;;;;;;108147;1251;24271;-81
2023/06/26 05:56:24;;;;;;;8.00;5.30;;;;;;;;;;108247;1250;25387;-81
2023/06/26 05:58:50;;;;;;;7.60;4.90;;;;;;;;;;108235;1253;22528;-80
2023/06/26 06:01:17;;;;;;;8.70;5.60;;;;;;;;;;108103;1252;23255;-81
2023/06/26 06:03:43;;;;;;;9.90;6.40;;;;;;;;;;108158;1251;23628;-80
2023/06/26 06:06:09;;;;;;;7.80;5.20;;;;;;;;;;108123;1251;22621;-81
2023/06/26 06:08:36;;;;;;;7.20;5.40;;;;;;;;;;108217;1255;22550;-80
2023/06/26 06:11:02;;;;;;;16.10;6.30;;;;;;;;;;108230;1251;23067;-80
2023/06/26 06:13:29;;;;;;;7.10;5.60;;;;;;;;;;108141;1251;22511;-81
2023/06/26 06:15:56;;;;;;;9.10;6.40;;;;;;;;;;108117;1255;22531;-80
2023/06/26 06:18:22;;;;;;;10.10;5.90;;;;;;;;;;108231;1251;22972;-81
2023/06/26 06:20:48;;;;;;;11.50;5.70;;;;;;;;;;108208;1252;23033;-81
2023/06/26 06:23:15;;;;;;;10.20;5.60;;;;;;;;;;108338;1254;22510;-82
2023/06/26 06:25:41;;;;;;;11.70;6.10;;;;;;;;;;108179;1251;22771;-81
2023/06/26 06:28:07;;;;;;;8.20;5.40;;;;;;;;;;108186;1251;22532;-81
2023/06/26 06:30:34;;;;;;;9.30;5.70;;;;;;;;;;108331;1251;22587;-81
2023/06/26 06:33:01;;;;;;;12.70;6.80;;;;;;;;;;108413;1254;22707;-81
2023/06/26 06:35:27;;;;;;;9.20;6.60;;;;;;;;;;108519;1250;24196;-81
2023/06/26 06:37:54;;;;;;;11.70;6.70;;;;;;;;;;108720;1253;25401;-81
2023/06/26 06:40:22;;;;;;;8.70;6.40;;;;;;;;;;108440;1251;22530;-81
2023/06/26 06:42:49;;;;;;;12.70;7.00;;;;;;;;;;108455;1250;22655;-82
2023/06/26 06:45:15;;;;;;;18.60;7.40;;;;;;;;;;108506;1253;22635;-81
2023/06/26 06:47:42;;;;;;;13.10;7.30;;;;;;;;;;108416;1251;22665;-81
2023/06/26 06:50:08;;;;;;;14.90;6.50;;;;;;;;;;108338;1256;22633;-82
2023/06/26 06:52:38;;;;;;;9.80;6.10;;;;;;;;;;108437;1253;22581;-81
2023/06/26 06:55:06;;;;;;;10.10;6.70;;;;;;;;;;108409;1250;23034;-82
2023/06/26 06:57:35;;;;;;;8.40;6.30;;;;;;;;;;108497;1250;23156;-81
2023/06/26 07:00:08;;;;;;;9.20;5.50;;;;;;;;;;108424;1251;25300;-83
2023/06/26 07:02:35;;;;;;;8.50;5.70;;;;;;;;;;108524;1250;22558;-81
2023/06/26 07:05:03;;;;;;;13.10;7.00;;;;;;;;;;108364;1251;22571;-81
2023/06/26 07:07:32;;;;;;;8.40;5.80;;;;;;;;;;108175;1254;241919;-82
2023/06/26 07:10:03;;;;;;;9.80;6.20;;;;;;;;;;108308;1251;22627;-81
2023/06/26 07:12:29;;;;;;;8.50;6.10;;;;;;;;;;108342;1251;23277;-81
2023/06/26 07:14:56;;;;;;;13.60;6.40;;;;;;;;;;108475;1251;23240;-81
2023/06/26 07:17:22;;;;;;;10.40;5.60;;;;;;;;;;108601;1251;23244;-82
2023/06/26 07:19:49;;;;;;;6.90;5.10;;;;;;;;;;108431;1251;22632;-82
2023/06/26 07:22:16;;;;;;;9.70;5.30;;;;;;;;;;108365;1251;23623;-81
2023/06/26 07:24:42;;;;;;;9.00;5.20;;;;;;;;;;108680;1251;22579;-81
2023/06/26 07:27:08;;;;;;;7.90;5.00;;;;;;;;;;108466;1250;22654;-81
2023/06/26 07:29:35;;;;;;;9.30;5.60;;;;;;;;;;108424;1250;22536;-81
2023/06/26 07:32:01;;;;;;;7.10;5.10;;;;;;;;;;108494;1266;22566;-81
2023/06/26 07:34:28;;;;;;;7.00;5.10;;;;;;;;;;108686;1251;22579;-81
2023/06/26 07:36:54;;;;;;;7.10;5.80;;;;;;;;;;108426;1254;23318;-81
2023/06/26 07:39:20;;;;;;;8.70;5.60;;;;;;;;;;108601;1251;24117;-82
2023/06/26 07:41:47;;;;;;;6.50;4.40;;;;;;;;;;108402;1250;22517;-81
2023/06/26 07:44:14;;;;;;;8.50;6.20;;;;;;;;;;108656;1251;22594;-82
2023/06/26 07:46:40;;;;;;;10.90;5.60;;;;;;;;;;108485;1254;25186;-82
2023/06/26 07:49:06;;;;;;;8.80;5.20;;;;;;;;;;108402;1255;23365;-81
2023/06/26 07:51:33;;;;;;;6.70;4.80;;;;;;;;;;108459;1251;22567;-81
2023/06/26 07:53:59;;;;;;;7.40;4.70;;;;;;;;;;108502;1251;23185;-81
2023/06/26 07:56:26;;;;;;;6.90;4.80;;;;;;;;;;108531;1250;22538;-81
2023/06/26 07:58:52;;;;;;;6.60;4.50;;;;;;;;;;108499;1250;22552;-82
2023/06/26 08:01:19;;;;;;;6.90;4.60;;;;;;;;;;108429;1253;22525;-82
2023/06/26 08:03:45;;;;;;;6.90;4.70;;;;;;;;;;108516;1254;23252;-82
2023/06/26 08:06:12;;;;;;;7.70;3.90;;;;;;;;;;108357;1251;23791;-81
2023/06/26 08:08:38;;;;;;;9.20;5.10;;;;;;;;;;108388;1251;22823;-82
2023/06/26 08:11:04;;;;;;;8.50;4.20;;;;;;;;;;108329;1254;25340;-82
2023/06/26 08:13:31;;;;;;;8.40;4.40;;;;;;;;;;108441;1250;25275;-82
2023/06/26 08:15:57;;;;;;;4.70;3.50;;;;;;;;;;108443;1250;22570;-82
2023/06/26 08:18:24;;;;;;;7.20;4.10;;;;;;;;;;108460;1251;24246;-82
2023/06/26 08:20:50;;;;;;;6.40;4.20;;;;;;;;;;108408;1251;24385;-82
2023/06/26 08:23:16;;;;;;;6.40;4.60;;;;;;;;;;108629;1249;22621;-82
2023/06/26 08:25:43;;;;;;;4.70;3.20;;;;;;;;;;108449;1250;22554;-82
2023/06/26 08:28:09;;;;;;;6.80;3.60;;;;;;;;;;108561;1251;22545;-83
2023/06/26 08:30:35;;;;;;;4.40;3.60;;;;;;;;;;108491;1253;22548;-83
2023/06/26 08:33:02;;;;;;;5.40;3.20;;;;;;;;;;108585;1251;23323;-83
2023/06/26 08:35:28;;;;;;;5.60;3.50;;;;;;;;;;108423;1253;44305;-83
2023/06/26 08:37:55;;;;;;;5.10;3.10;;;;;;;;;;108409;1251;22941;-84
2023/06/26 08:40:21;;;;;;;5.50;3.20;;;;;;;;;;108544;1251;25504;-83
2023/06/26 08:42:52;;;;;;;6.20;3.60;;;;;;;;;;108493;1252;22697;-83
2023/06/26 08:45:19;;;;;;;5.50;3.30;;;;;;;;;;108440;1251;22565;-83
2023/06/26 08:47:45;;;;;;;4.00;3.20;;;;;;;;;;108485;1251;24444;-83
2023/06/26 08:50:12;;;;;;;7.30;3.40;;;;;;;;;;108281;1252;22531;-83
2023/06/26 08:52:57;;;;;;;4.90;3.00;;;;;;;;;;108492;1250;22612;-84
2023/06/26 08:55:24;;;;;;;5.40;3.30;;;;;;;;;;108477;1253;23085;-83
2023/06/26 08:57:53;;;;;;;5.20;3.10;;;;;;;;;;108464;1251;22529;-83
2023/06/26 09:00:20;;;;;;;3.90;3.40;;;;;;;;;;108405;1251;22613;-83
2023/06/26 09:02:46;;;;;;;4.60;2.50;;;;;;;;;;110351;1251;22272;-84
2023/06/26 09:05:13;;;;;;;4.10;3.40;;;;;;;;;;109659;1250;59078;-84
2023/06/26 09:07:39;;;;;;;5.30;4.10;;;;;;;;;;107444;1253;61244;-84
2023/06/26 09:10:06;;;;;;;4.70;3.50;;;;;;;;;;107405;1251;61293;-84
2023/06/26 09:12:32;;;;;;;5.80;3.30;;;;;;;;;;107364;1251;61197;-84
2023/06/26 09:14:59;;;;;;;5.50;3.30;;;;;;;;;;107361;1251;62320;-83
2023/06/26 09:17:29;;;;;;;6.10;3.10;;;;;;;;;;107369;1251;61372;-84
2023/06/26 09:19:55;;;;;;;5.80;3.10;;;;;;;;;;107355;1251;61085;-83
2023/06/26 09:22:22;;;;;;;6.10;2.90;;;;;;;;;;107452;1251;61233;-84
2023/06/26 09:24:49;;;;;;;4.20;3.30;;;;;;;;;;107492;1253;61231;-83
2023/06/26 09:27:16;;;;;;;5.90;3.10;;;;;;;;;;107347;1251;61139;-84
2023/06/26 09:29:44;;;;;;;6.40;2.90;;;;;;;;;;107944;1251;61148;-84
2023/06/26 09:32:12;;;;;;;3.30;2.80;;;;;;;;;;107840;1253;60653;-83
2023/06/26 09:34:41;;;;;;;3.70;3.10;;;;;;;;;;107390;1253;61272;-83
2023/06/26 09:37:08;;;;;;;3.70;3.00;;;;;;;;;;107340;1251;61672;-84
2023/06/26 09:39:34;;;;;;;4.20;3.20;;;;;;;;;;107316;1253;62101;-84
2023/06/26 09:42:01;;;;;;;3.20;2.60;;;;;;;;;;107851;1251;58985;-84
2023/06/26 09:44:28;;;;;;;5.20;3.00;;;;;;;;;;108422;1253;22529;-83
2023/06/26 09:46:55;;;;;;;7.40;3.50;;;;;;;;;;108215;1252;58849;-84
2023/06/26 09:49:21;;;;;;;3.70;2.90;;;;;;;;;;108310;1251;22603;-83
2023/06/26 09:51:48;;;;;;;4.20;2.50;;;;;;;;;;108394;1250;22528;-83
2023/06/26 09:54:15;;;;;;;4.40;2.80;;;;;;;;;;108390;1253;22544;-84
2023/06/26 09:56:42;;;;;;;4.10;3.00;;;;;;;;;;108495;1251;58622;-83
2023/06/26 09:59:09;;;;;;;3.20;2.60;;;;;;;;;;108232;1251;59246;-83
2023/06/26 10:01:40;;;;;;;3.80;2.60;;;;;;;;;;108412;1250;44060;-83
2023/06/26 10:04:06;;;;;;;3.70;2.70;;;;;;;;;;108680;1250;22628;-84
2023/06/26 10:06:34;;;;;;;4.60;3.10;;;;;;;;;;108382;1250;22597;-83
2023/06/26 10:09:00;;;;;;;3.70;2.80;;;;;;;;;;108079;1253;59148;-83
2023/06/26 10:11:30;;;;;;;3.90;3.10;;;;;;;;;;108321;1250;45338;-83
2023/06/26 10:13:56;;;;;;;5.50;3.00;;;;;;;;;;107757;1250;61222;-83
2023/06/26 10:16:23;;;;;;;4.00;2.70;;;;;;;;;;107839;1251;61830;-83
2023/06/26 10:18:50;;;;;;;4.50;3.00;;;;;;;;;;108177;1253;59006;-84
2023/06/26 10:21:17;;;;;;;3.30;2.60;;;;;;;;;;107920;1255;61263;-84
2023/06/26 10:23:43;;;;;;;4.60;3.00;;;;;;;;;;108435;1251;55082;-84
2023/06/26 10:26:10;;;;;;;3.80;2.50;;;;;;;;;;108348;1251;22868;-84
2023/06/26 10:28:36;;;;;;;3.30;2.70;;;;;;;;;;108337;1251;22553;-84
2023/06/26 10:31:02;;;;;;;3.20;2.70;;;;;;;;;;108169;1251;26045;-84
2023/06/26 10:33:29;;;;;;;3.40;2.80;;;;;;;;;;108457;1251;56849;-83
2023/06/26 10:36:11;;;;;;;4.40;2.60;;;;;;;;;;108378;1253;22698;-84
2023/06/26 10:38:51;;;;;;;4.70;2.80;;;;;;;;;;108279;1251;22628;-84
2023/06/26 10:41:21;;;;;;;3.20;2.80;;;;;;;;;;108284;1250;22533;-84
2023/06/26 10:43:51;;;;;;;4.10;3.10;;;;;;;;;;108485;1253;22543;-84
2023/06/26 10:46:18;;;;;;;5.10;2.90;;;;;;;;;;108269;1250;58921;-84
2023/06/26 10:48:58;;;;;;;7.50;3.10;;;;;;;;;;108375;1251;44738;-84
2023/06/26 10:51:25;;;;;;;4.20;3.00;;;;;;;;;;108367;1252;22575;-84
2023/06/26 10:53:55;;;;;;;5.30;3.00;;;;;;;;;;108418;1251;22551;-84
2023/06/26 10:56:24;;;;;;;3.00;2.20;;;;;;;;;;107340;1253;61136;-84
2023/06/26 10:58:50;;;;;;;3.70;2.70;;;;;;;;;;107368;1255;61212;-84
2023/06/26 11:01:22;;;;;;;3.80;2.90;;;;;;;;;;108159;1253;59205;-84
2023/06/26 11:03:58;;;;;;;3.80;2.80;;;;;;;;;;108368;1251;22544;-84
2023/06/26 11:06:24;;;;;;;7.40;3.20;;;;;;;;;;108328;1251;22614;-84
2023/06/26 11:08:54;;;;;;;3.20;2.70;;;;;;;;;;108471;1251;22529;-84
2023/06/26 11:11:21;;;;;;;5.30;2.70;;;;;;;;;;108536;1252;26770;-84
2023/06/26 11:13:48;;;;;;;3.20;2.50;;;;;;;;;;108466;1251;23123;-84
2023/06/26 11:16:14;;;;;;;3.20;2.70;;;;;;;;;;108270;1252;61076;-84
2023/06/26 11:18:41;;;;;;;4.60;2.60;;;;;;;;;;107975;1251;59206;-84
2023/06/26 11:21:08;;;;;;;3.20;2.60;;;;;;;;;;108530;1251;25567;-84
2023/06/26 11:23:35;;;;;;;3.90;2.60;;;;;;;;;;108374;1251;59502;-83
2023/06/26 11:26:17;;;;;;;4.40;2.60;;;;;;;;;;107283;1251;61409;-84
2023/06/26 11:28:48;;;;;;;3.90;2.70;;;;;;;;;;107570;1256;61320;-84
2023/06/26 11:31:24;;;;;;;3.70;2.80;;;;;;;;;;107402;1253;61844;-84
2023/06/26 11:33:52;;;;;;;5.60;2.70;;;;;;;;;;109618;1251;58919;-84
2023/06/26 11:36:19;;;;;;;4.40;2.40;;;;;;;;;;108480;1253;61158;-84
2023/06/26 11:38:45;;;;;;;7.90;2.80;;;;;;;;;;107417;1253;61189;-84
2023/06/26 11:41:16;;;;;;;3.30;2.60;;;;;;;;;;107453;1253;61329;-84
2023/06/26 11:43:42;;;;;;;4.70;2.70;;;;;;;;;;107816;1254;61471;-84
2023/06/26 11:46:09;;;;;;;2.90;2.50;;;;;;;;;;107639;1255;61177;-84
2023/06/26 11:48:35;;;;;;;5.20;2.10;;;;;;;;;;107275;1251;61172;-85
2023/06/26 11:51:04;;;;;;;6.00;2.70;;;;;;;;;;107925;1251;61415;-84
2023/06/26 11:53:30;;;;;;;3.10;2.70;;;;;;;;;;107644;1251;59186;-84
2023/06/26 11:55:57;;;;;;;4.40;2.50;;;;;;;;;;107596;1253;61191;-84
2023/06/26 11:58:23;;;;;;;6.10;3.00;;;;;;;;;;107376;1251;62734;-84
2023/06/26 12:00:49;;;;;;;3.20;2.50;;;;;;;;;;107260;1253;59347;-84
2023/06/26 12:03:16;;;;;;;7.20;2.50;;;;;;;;;;107330;1254;61280;-84
2023/06/26 12:05:44;;;;;;;4.70;2.80;;;;;;;;;;107567;1253;59183;-84
2023/06/26 12:08:11;;;;;;;3.10;2.70;;;;;;;;;;107335;1253;62808;-84
2023/06/26 12:10:38;;;;;;;3.50;2.20;;;;;;;;;;107478;1251;61237;-84
2023/06/26 12:13:04;;;;;;;2.40;2.20;;;;;;;;;;107450;1256;61048;-84
2023/06/26 12:15:31;;;;;;;5.20;3.10;;;;;;;;;;107405;1255;61251;-84
2023/06/26 12:17:57;;;;;;;3.50;2.60;;;;;;;;;;107511;1255;61348;-84
2023/06/26 12:20:25;;;;;;;3.40;2.80;;;;;;;;;;107310;1254;61162;-84
2023/06/26 12:22:52;;;;;;;3.60;3.20;;;;;;;;;;107442;1253;61251;-84
2023/06/26 12:25:22;;;;;;;4.00;3.10;;;;;;;;;;107644;1254;61288;-84
2023/06/26 12:27:49;;;;;;;6.10;4.10;;;;;;;;;;107269;1250;59453;-85
2023/06/26 12:30:16;;;;;;;3.90;2.70;;;;;;;;;;107313;1255;61241;-84
2023/06/26 12:32:46;;;;;;;8.00;5.10;;;;;;;;;;107368;1253;61208;-84
2023/06/26 12:35:13;;;;;;;5.10;4.20;;;;;;;;;;107406;1251;59586;-84
2023/06/26 12:37:40;;;;;;;3.80;3.10;;;;;;;;;;107210;1253;61424;-84
2023/06/26 12:40:16;;;;;;;8.10;3.10;;;;;;;;;;109015;1255;59212;-84
2023/06/26 12:42:42;;;;;;;4.00;3.50;;;;;;;;;;107278;1251;61344;-84
2023/06/26 12:45:15;;;;;;;4.00;2.80;;;;;;;;;;107317;1251;61424;-84
2023/06/26 12:47:41;;;;;;;5.00;3.10;;;;;;;;;;107218;1255;62631;-84
2023/06/26 12:50:08;;;;;;;3.10;2.70;;;;;;;;;;107825;1251;61126;-84
2023/06/26 12:52:34;;;;;;;3.80;2.90;;;;;;;;;;108930;1253;61336;-84
2023/06/26 12:55:01;;;;;;;2.80;2.60;;;;;;;;;;107322;1253;59836;-83
2023/06/26 12:57:27;;;;;;;3.50;2.70;;;;;;;;;;107144;1251;61823;-84
2023/06/26 12:59:54;;;;;;;11.40;10.20;;;;;;;;;;107318;1251;61218;-84
2023/06/26 13:02:20;;;;;;;3.00;2.50;;;;;;;;;;107309;1251;61270;-84
2023/06/26 13:04:47;;;;;;;4.60;4.20;;;;;;;;;;107372;1256;60819;-84
2023/06/26 13:07:13;;;;;;;3.60;2.60;;;;;;;;;;107412;1255;61171;-83
2023/06/26 13:09:41;;;;;;;3.10;2.70;;;;;;;;;;107328;1254;61074;-84
2023/06/26 13:12:07;;;;;;;2.90;2.30;;;;;;;;;;107328;1255;61347;-84
2023/06/26 13:14:34;;;;;;;3.30;2.60;;;;;;;;;;107385;1253;61168;-83
2023/06/26 13:17:00;;;;;;;3.20;2.70;;;;;;;;;;107212;1255;61253;-84
2023/06/26 13:19:27;;;;;;;3.30;2.60;;;;;;;;;;107276;1251;61103;-84
2023/06/26 13:21:53;;;;;;;3.40;2.70;;;;;;;;;;107290;1255;61254;-84
2023/06/26 13:24:20;;;;;;;7.00;4.10;;;;;;;;;;107302;1256;61459;-84
2023/06/26 13:26:47;;;;;;;4.40;3.70;;;;;;;;;;107253;1255;61221;-84
2023/06/26 13:29:13;;;;;;;3.10;2.80;;;;;;;;;;107229;1251;61273;-84
2023/06/26 13:31:40;;;;;;;3.50;2.80;;;;;;;;;;107276;1256;61086;-83
2023/06/26 13:34:06;;;;;;;4.00;3.30;;;;;;;;;;107407;1254;61221;-83
2023/06/26 13:36:36;;;;;;;5.70;3.00;;;;;;;;;;107240;1251;61258;-83
2023/06/26 13:39:03;;;;;;;3.70;3.30;;;;;;;;;;107226;1251;59751;-84
2023/06/26 13:41:29;;;;;;;5.80;5.20;;;;;;;;;;107208;1256;61205;-83
2023/06/26 13:43:55;;;;;;;4.00;2.90;;;;;;;;;;107314;1251;61131;-84
2023/06/26 13:46:22;;;;;;;5.40;3.50;;;;;;;;;;107170;1255;59556;-84
2023/06/26 13:48:48;;;;;;;5.30;2.90;;;;;;;;;;107225;1251;61337;-85
2023/06/26 13:51:15;;;;;;;5.70;3.00;;;;;;;;;;107110;1253;61412;-84
2023/06/26 13:53:41;;;;;;;4.40;2.60;;;;;;;;;;107300;1251;62462;-83
2023/06/26 13:56:07;;;;;;;4.80;3.30;;;;;;;;;;107184;1251;60924;-84
2023/06/26 13:58:34;;;;;;;5.30;4.70;;;;;;;;;;107103;1256;61248;-83
2023/06/26 14:01:01;;;;;;;8.90;7.60;;;;;;;;;;107073;1253;61214;-83
2023/06/26 14:03:28;;;;;;;9.80;8.80;;;;;;;;;;107244;1251;61278;-83
2023/06/26 14:05:54;;;;;;;6.90;6.10;;;;;;;;;;107128;1251;61343;-83
2023/06/26 14:08:21;;;;;;;7.60;6.40;;;;;;;;;;107224;1253;59786;-83
2023/06/26 14:10:48;;;;;;;32.30;23.60;;;;;;;;;;107146;1253;62441;-84
2023/06/26 14:13:15;;;;;;;10.70;6.20;;;;;;;;;;107171;1254;61114;-83
2023/06/26 14:15:42;;;;;;;7.40;4.50;;;;;;;;;;107154;1251;61281;-83
2023/06/26 14:18:08;;;;;;;13.30;7.80;;;;;;;;;;107121;1256;59497;-83
2023/06/26 14:20:35;;;;;;;4.50;3.70;;;;;;;;;;107151;1254;60310;-84
2023/06/26 14:23:02;;;;;;;5.00;3.30;;;;;;;;;;107383;1252;61669;-84
2023/06/26 14:25:29;;;;;;;6.60;3.00;;;;;;;;;;107218;1255;61221;-83